Time;durP1;ratioP1;P1;durP2;ratioP2;P2;SDS_P1;SDS_P2;PMS_P1;PMS_P2;Temp;Humidity;BMP_temperature;BMP_pressure;BME280_temperature;BME280_humidity;BME280_pressure;Samples;Min_cycle;Max_cycle;Signal;HPM_P1;HPM_P2
2022/01/16 00:00:24;;;;;;;2.58;0.82;;;18.20;52.70;;;;;;5076095;28;20221;-86
2022/01/16 00:05:35;;;;;;;1.70;0.95;;;18.20;52.70;;;;;;5078861;28;20157;-86
2022/01/16 00:08:01;;;;;;;1.70;0.70;;;18.20;52.40;;;;;;5076129;28;20191;-87
2022/01/16 00:10:27;;;;;;;3.28;0.90;;;18.20;52.60;;;;;;5076317;28;20264;-86
2022/01/16 00:12:59;;;;;;;2.42;0.70;;;18.20;52.50;;;;;;5058926;28;20156;-86
2022/01/16 00:15:25;;;;;;;2.78;0.93;;;18.20;52.50;;;;;;5076817;28;20156;-86
2022/01/16 00:17:55;;;;;;;2.90;0.80;;;18.20;52.50;;;;;;5059592;28;20167;-86
2022/01/16 00:20:24;;;;;;;1.88;0.60;;;18.30;52.60;;;;;;5077135;28;20151;-85
2022/01/16 00:22:50;;;;;;;2.88;0.77;;;18.20;52.50;;;;;;5092816;28;20240;-86
2022/01/16 00:25:16;;;;;;;1.20;0.70;;;18.20;52.10;;;;;;5059673;28;20233;-86
2022/01/16 00:27:42;;;;;;;3.45;0.80;;;18.20;52.70;;;;;;5093161;28;20542;-87
2022/01/16 00:30:09;;;;;;;2.10;0.90;;;18.20;52.50;;;;;;5059836;28;20160;-86
2022/01/16 00:32:34;;;;;;;1.13;0.80;;;18.20;52.40;;;;;;5076091;28;20607;-86
2022/01/16 00:35:00;;;;;;;1.33;0.63;;;18.20;52.50;;;;;;5093051;28;20153;-85
2022/01/16 00:37:27;;;;;;;1.48;0.80;;;18.20;52.50;;;;;;5093282;28;20161;-85
2022/01/16 00:39:59;;;;;;;3.25;0.95;;;18.20;52.10;;;;;;5076661;28;20653;-86
2022/01/16 00:42:24;;;;;;;1.85;0.70;;;18.20;52.60;;;;;;5076235;28;20252;-86
2022/01/16 00:44:51;;;;;;;1.50;0.88;;;18.20;52.60;;;;;;5076011;28;20598;-85
2022/01/16 00:47:17;;;;;;;2.63;0.82;;;18.20;52.10;;;;;;5094085;28;20180;-87
2022/01/16 00:49:43;;;;;;;2.97;0.90;;;18.20;52.80;;;;;;5076125;28;20149;-86
2022/01/16 00:52:10;;;;;;;1.20;0.70;;;18.10;52.50;;;;;;5075987;28;20153;-85
2022/01/16 00:54:38;;;;;;;1.23;0.75;;;18.10;52.20;;;;;;5059890;28;20580;-87
2022/01/16 00:57:04;;;;;;;2.25;0.80;;;18.20;52.50;;;;;;5076365;28;20157;-86
2022/01/16 00:59:30;;;;;;;1.27;1.00;;;18.10;52.40;;;;;;5075784;28;20525;-85
2022/01/16 01:01:55;;;;;;;2.35;0.80;;;18.10;52.20;;;;;;5087004;28;20216;-87
2022/01/16 01:04:22;;;;;;;1.63;0.95;;;18.10;52.70;;;;;;5076015;28;20176;-86
2022/01/16 01:06:50;;;;;;;1.48;0.60;;;18.20;52.40;;;;;;5092564;28;20724;-87
2022/01/16 01:09:15;;;;;;;1.30;0.90;;;18.20;52.20;;;;;;5092799;28;20149;-86
2022/01/16 01:11:43;;;;;;;2.50;0.88;;;18.10;52.50;;;;;;5075545;28;20157;-85
2022/01/16 01:14:19;;;;;;;1.27;0.82;;;18.10;52.20;;;;;;5076224;28;20247;-86
2022/01/16 01:16:54;;;;;;;2.42;1.05;;;18.20;52.40;;;;;;5094524;28;20514;-86
2022/01/16 01:19:24;;;;;;;2.55;0.88;;;18.20;52.50;;;;;;5095497;28;20149;-85
2022/01/16 01:21:51;;;;;;;2.40;0.85;;;18.10;51.90;;;;;;5076105;28;20160;-87
2022/01/16 01:24:16;;;;;;;1.58;0.70;;;18.10;52.50;;;;;;5097854;28;20175;-85
2022/01/16 01:26:54;;;;;;;2.05;0.80;;;18.10;52.50;;;;;;5081583;28;20267;-85
2022/01/16 01:29:21;;;;;;;1.70;0.80;;;18.00;52.50;;;;;;5082710;28;20183;-86
2022/01/16 01:31:47;;;;;;;0.93;0.70;;;18.10;52.40;;;;;;5096775;28;20691;-84
2022/01/16 01:34:14;;;;;;;1.13;1.00;;;18.10;52.30;;;;;;5080070;28;20172;-87
2022/01/16 01:36:39;;;;;;;2.42;0.80;;;18.10;52.50;;;;;;5078913;28;20157;-85
2022/01/16 01:39:05;;;;;;;3.72;0.98;;;18.10;52.40;;;;;;5095637;28;20153;-85
2022/01/16 01:41:30;;;;;;;1.10;0.70;;;18.00;52.60;;;;;;5095804;28;20157;-85
2022/01/16 01:51:57;;;;;;;2.80;0.80;;;18.00;52.50;;;;;;5095785;28;20231;-86
2022/01/16 01:54:24;;;;;;;1.35;0.80;;;18.10;52.50;;;;;;5096895;28;20252;-87
2022/01/16 01:56:52;;;;;;;1.70;1.08;;;18.10;52.40;;;;;;5095578;28;20549;-85
2022/01/16 01:59:18;;;;;;;1.80;1.00;;;18.00;52.40;;;;;;5078619;28;20248;-86
2022/01/16 02:01:45;;;;;;;1.55;0.82;;;18.00;52.70;;;;;;5088377;28;20298;-86
2022/01/16 02:04:11;;;;;;;2.40;1.02;;;18.00;52.10;;;;;;5095330;28;20161;-85
2022/01/16 02:06:37;;;;;;;2.03;0.80;;;18.00;52.50;;;;;;5095071;28;20161;-87
2022/01/16 02:09:06;;;;;;;0.98;0.80;;;18.10;52.40;;;;;;5095759;28;20515;-84
2022/01/16 02:11:33;;;;;;;1.75;0.70;;;18.10;52.50;;;;;;5096402;28;20152;-85
2022/01/16 02:14:26;;;;;;;1.85;1.00;;;18.10;52.40;;;;;;5095093;28;20155;-86
2022/01/16 02:30:50;;;;;;;1.10;0.73;;;18.10;52.60;;;;;;5109858;28;20156;-87
2022/01/16 02:33:23;;;;;;;1.85;0.75;;;18.00;52.20;;;;;;5108149;28;20175;-88
2022/01/16 02:35:46;;;;;;;1.27;0.80;;;18.00;52.20;;;;;;5107485;28;20215;-86
2022/01/16 02:38:13;;;;;;;1.60;0.75;;;18.00;52.20;;;;;;5077156;28;20165;-85
2022/01/16 02:40:48;;;;;;;1.92;1.00;;;18.00;52.80;;;;;;5094179;28;20209;-86
2022/01/16 02:43:17;;;;;;;1.38;0.70;;;18.00;52.80;;;;;;5076765;28;20161;-85
2022/01/16 02:45:48;;;;;;;1.42;0.90;;;17.90;52.50;;;;;;5093343;28;20240;-86
2022/01/16 02:48:13;;;;;;;0.90;0.75;;;17.90;52.50;;;;;;5077332;28;20187;-86
2022/01/16 02:50:39;;;;;;;1.48;0.70;;;18.00;52.50;;;;;;5093862;28;20150;-86
2022/01/16 02:53:09;;;;;;;2.03;0.93;;;17.90;52.60;;;;;;5093658;28;20256;-86
2022/01/16 02:55:41;;;;;;;2.08;0.90;;;17.90;52.30;;;;;;5076713;28;20608;-85
2022/01/16 02:58:06;;;;;;;1.02;0.80;;;18.00;52.80;;;;;;5110284;28;20149;-87
2022/01/16 03:00:32;;;;;;;2.53;0.88;;;18.00;52.70;;;;;;5094991;28;20219;-85
2022/01/16 03:02:58;;;;;;;1.10;0.73;;;17.90;52.40;;;;;;5059911;28;20176;-86
2022/01/16 03:05:31;;;;;;;2.03;1.08;;;18.00;52.50;;;;;;5060190;28;20638;-86
2022/01/16 03:07:56;;;;;;;0.82;0.75;;;18.00;52.50;;;;;;5076395;28;20229;-86
2022/01/16 03:10:50;;;;;;;1.23;0.70;;;17.90;52.40;;;;;;5076484;28;20254;-86
2022/01/16 03:13:09;;;;;;;1.60;0.85;;;18.00;52.50;;;;;;5093303;28;20426;-86
2022/01/16 03:15:38;;;;;;;1.48;0.88;;;18.00;52.00;;;;;;5077202;28;20195;-86
2022/01/16 03:23:39;;;;;;;1.45;0.80;;;18.00;52.20;;;;;;5094718;28;20238;-87
2022/01/16 03:26:05;;;;;;;1.35;0.80;;;18.00;52.50;;;;;;5093448;28;20153;-87
2022/01/16 03:28:31;;;;;;;2.08;1.08;;;17.90;52.30;;;;;;5093508;28;20234;-86
2022/01/16 03:30:59;;;;;;;2.55;0.80;;;17.90;52.30;;;;;;5076236;28;20163;-85
2022/01/16 03:33:24;;;;;;;2.35;0.80;;;17.90;52.00;;;;;;5093623;28;20177;-87
2022/01/16 03:35:51;;;;;;;1.25;0.70;;;17.90;52.40;;;;;;5094351;28;20187;-86
2022/01/16 03:38:17;;;;;;;1.92;1.00;;;17.90;52.30;;;;;;5060075;28;20174;-85
2022/01/16 03:40:43;;;;;;;1.95;1.05;;;18.00;52.30;;;;;;5076071;28;20160;-87
2022/01/16 03:43:13;;;;;;;1.08;0.80;;;18.00;52.30;;;;;;5075825;28;20200;-85
2022/01/16 03:45:46;;;;;;;2.28;0.90;;;18.00;52.20;;;;;;5092833;28;20153;-86
2022/01/16 03:48:13;;;;;;;1.67;0.98;;;17.90;52.10;;;;;;5092528;28;20192;-86
2022/01/16 03:50:40;;;;;;;2.42;1.00;;;17.90;52.60;;;;;;5075993;28;20168;-87
2022/01/16 03:53:08;;;;;;;1.83;0.75;;;17.90;52.30;;;;;;5093222;28;20232;-87
2022/01/16 03:55:34;;;;;;;1.75;0.73;;;17.90;52.30;;;;;;5076018;28;20149;-86
2022/01/16 03:58:00;;;;;;;1.70;0.88;;;17.90;52.40;;;;;;5076368;28;20165;-86
2022/01/16 04:00:26;;;;;;;2.45;0.68;;;17.90;52.60;;;;;;5075508;28;20673;-85
2022/01/16 04:02:52;;;;;;;1.92;0.80;;;17.80;52.50;;;;;;5059314;28;20169;-86
2022/01/16 04:05:21;;;;;;;2.05;0.88;;;17.90;52.20;;;;;;5075501;28;20699;-85
2022/01/16 04:07:46;;;;;;;1.20;0.80;;;17.90;52.60;;;;;;5093483;28;20582;-87
2022/01/16 04:10:13;;;;;;;1.55;0.70;;;17.90;52.30;;;;;;5075636;28;20354;-87
2022/01/16 04:12:39;;;;;;;1.63;0.85;;;17.90;52.40;;;;;;5075836;28;20195;-86
2022/01/16 04:17:53;;;;;;;1.38;0.95;;;17.90;52.10;;;;;;5065191;28;20165;-86
2022/01/16 04:20:19;;;;;;;1.23;0.88;;;17.90;52.20;;;;;;5058639;28;20156;-86
2022/01/16 04:22:45;;;;;;;1.42;0.80;;;17.90;52.10;;;;;;5075802;28;20157;-87
2022/01/16 04:25:12;;;;;;;1.48;0.80;;;17.90;52.60;;;;;;5092509;28;20580;-87
2022/01/16 04:27:38;;;;;;;1.48;0.93;;;17.90;52.50;;;;;;5058514;28;20599;-86
2022/01/16 04:30:05;;;;;;;2.00;0.90;;;17.90;52.40;;;;;;5059174;28;20161;-87
2022/01/16 04:32:32;;;;;;;2.33;0.95;;;17.90;52.30;;;;;;5092188;28;20145;-87
2022/01/16 04:34:59;;;;;;;1.42;1.25;;;17.80;52.30;;;;;;5058801;28;20156;-86
2022/01/16 04:37:25;;;;;;;1.23;0.77;;;17.90;52.50;;;;;;5075287;28;20609;-85
2022/01/16 04:39:59;;;;;;;1.65;0.90;;;17.90;52.30;;;;;;5075597;28;20164;-85
2022/01/16 04:45:06;;;;;;;0.90;0.80;;;17.90;52.50;;;;;;5093213;28;20571;-88
2022/01/16 04:47:31;;;;;;;2.25;0.90;;;17.90;52.50;;;;;;5058769;28;20184;-86
2022/01/16 04:49:57;;;;;;;1.30;0.75;;;17.80;52.70;;;;;;5075421;28;20637;-86
2022/01/16 04:52:22;;;;;;;1.65;0.85;;;17.80;52.60;;;;;;5076168;28;20169;-87
2022/01/16 04:54:48;;;;;;;1.13;0.70;;;17.70;52.30;;;;;;5076222;28;20180;-86
2022/01/16 04:57:14;;;;;;;1.45;0.80;;;17.90;52.60;;;;;;5076903;28;20165;-85
2022/01/16 04:59:41;;;;;;;2.45;0.80;;;17.80;52.60;;;;;;5081254;28;20176;-85
2022/01/16 05:02:07;;;;;;;1.55;0.70;;;17.80;52.40;;;;;;5116694;28;20254;-87
2022/01/16 05:04:33;;;;;;;2.13;0.80;;;17.90;52.60;;;;;;5103969;28;20172;-87
2022/01/16 05:06:58;;;;;;;2.03;1.10;;;17.80;52.50;;;;;;5103500;28;20200;-86
2022/01/16 05:09:28;;;;;;;2.17;1.10;;;17.80;52.50;;;;;;5086098;28;20164;-87
2022/01/16 05:12:01;;;;;;;1.80;0.90;;;17.80;52.50;;;;;;5117388;28;20171;-87
2022/01/16 05:17:08;;;;;;;3.85;0.90;;;17.80;52.50;;;;;;5118133;28;20183;-86
2022/01/16 05:19:33;;;;;;;0.90;0.80;;;17.80;52.10;;;;;;5083740;28;20526;-86
2022/01/16 05:21:59;;;;;;;1.80;0.90;;;17.90;52.30;;;;;;5084485;28;20171;-88
2022/01/16 05:24:31;;;;;;;2.95;1.05;;;17.90;52.40;;;;;;5120264;28;20160;-87
2022/01/16 05:26:57;;;;;;;1.55;0.80;;;17.80;52.30;;;;;;5102677;28;20275;-87
2022/01/16 05:29:22;;;;;;;1.00;0.75;;;17.80;52.40;;;;;;5101591;28;20168;-85
2022/01/16 05:31:48;;;;;;;1.63;0.75;;;17.80;52.20;;;;;;5117283;28;20163;-85
2022/01/16 05:34:14;;;;;;;1.23;0.80;;;17.80;52.10;;;;;;5081712;28;20163;-86
2022/01/16 05:36:40;;;;;;;1.25;0.73;;;17.80;52.40;;;;;;5081698;28;20247;-87
2022/01/16 05:39:06;;;;;;;1.50;1.00;;;17.80;52.20;;;;;;5098701;28;20251;-86
2022/01/16 05:41:31;;;;;;;3.45;0.90;;;17.90;52.20;;;;;;5098718;28;20202;-88
2022/01/16 05:43:57;;;;;;;2.50;0.90;;;17.90;52.40;;;;;;5098627;28;20172;-87
2022/01/16 05:46:23;;;;;;;1.23;0.75;;;17.80;52.00;;;;;;5098519;28;20224;-87
2022/01/16 05:48:50;;;;;;;1.77;1.00;;;17.80;52.20;;;;;;5098504;28;20179;-87
2022/01/16 05:51:16;;;;;;;1.98;0.80;;;17.80;52.40;;;;;;5082067;28;20243;-87
2022/01/16 05:53:44;;;;;;;1.50;0.75;;;17.80;52.60;;;;;;5115692;28;20194;-87
2022/01/16 05:56:10;;;;;;;2.00;0.90;;;17.80;52.20;;;;;;5098511;28;20259;-87
2022/01/16 05:58:36;;;;;;;0.88;0.80;;;17.80;52.50;;;;;;5098702;28;20182;-85
2022/01/16 06:01:01;;;;;;;1.67;1.00;;;17.80;52.10;;;;;;5078519;28;20220;-85
2022/01/16 06:03:29;;;;;;;2.22;0.88;;;17.80;52.20;;;;;;5112196;28;20599;-85
2022/01/16 06:05:55;;;;;;;1.50;0.90;;;17.80;52.20;;;;;;5112013;28;20227;-85
2022/01/16 06:08:21;;;;;;;1.77;0.88;;;17.80;52.00;;;;;;5112179;28;20665;-85
2022/01/16 06:10:47;;;;;;;1.52;0.95;;;17.90;52.50;;;;;;5110926;28;20247;-86
2022/01/16 06:13:12;;;;;;;2.00;1.08;;;17.80;52.10;;;;;;5094776;28;20188;-87
2022/01/16 06:15:40;;;;;;;1.98;0.90;;;17.80;52.30;;;;;;5112055;28;20513;-86
2022/01/16 06:18:07;;;;;;;2.95;0.77;;;17.80;52.30;;;;;;5112288;28;20175;-86
2022/01/16 06:20:33;;;;;;;2.95;0.90;;;17.80;52.40;;;;;;5094951;28;20627;-86
2022/01/16 06:23:00;;;;;;;1.33;0.82;;;17.80;52.60;;;;;;5094742;28;20175;-85
2022/01/16 06:25:29;;;;;;;1.30;0.80;;;17.70;52.20;;;;;;5078463;28;20528;-86
2022/01/16 06:27:58;;;;;;;1.15;0.82;;;17.70;52.50;;;;;;5094810;28;20281;-87
2022/01/16 06:30:24;;;;;;;1.30;0.88;;;17.80;52.60;;;;;;5111863;28;20209;-87
2022/01/16 06:32:51;;;;;;;2.92;0.93;;;17.70;52.60;;;;;;5111799;28;20164;-87
2022/01/16 06:35:17;;;;;;;1.48;0.75;;;17.70;52.60;;;;;;5112103;28;20176;-86
2022/01/16 06:37:44;;;;;;;2.15;1.05;;;17.60;52.60;;;;;;5111676;28;20183;-86
2022/01/16 06:40:13;;;;;;;0.95;0.80;;;17.70;52.60;;;;;;5112064;28;20496;-86
2022/01/16 06:42:39;;;;;;;1.98;0.90;;;17.70;52.60;;;;;;5111664;28;20157;-86
2022/01/16 06:45:08;;;;;;;1.13;0.70;;;17.70;52.60;;;;;;5111390;28;20206;-86
2022/01/16 06:47:33;;;;;;;2.17;0.80;;;17.70;52.70;;;;;;5111716;28;20685;-87
2022/01/16 06:49:59;;;;;;;1.65;1.08;;;17.70;52.40;;;;;;5111406;28;20161;-85
2022/01/16 06:52:24;;;;;;;0.93;0.70;;;17.70;52.70;;;;;;5111177;28;20161;-85
2022/01/16 06:54:53;;;;;;;1.45;0.90;;;17.70;52.60;;;;;;5077510;28;20256;-85
2022/01/16 06:57:19;;;;;;;1.50;0.77;;;17.70;52.60;;;;;;5111520;28;20161;-86
2022/01/16 06:59:45;;;;;;;2.30;0.90;;;17.70;52.60;;;;;;5111398;28;20180;-87
2022/01/16 07:02:12;;;;;;;1.38;0.73;;;17.70;52.60;;;;;;5124127;27;20251;-86
2022/01/16 07:04:46;;;;;;;1.60;0.80;;;17.70;52.70;;;;;;5127980;27;20164;-86
2022/01/16 07:07:13;;;;;;;2.35;0.88;;;17.70;52.60;;;;;;5094128;28;20207;-85
2022/01/16 07:09:40;;;;;;;1.60;0.80;;;17.70;52.60;;;;;;5110814;28;20630;-87
2022/01/16 07:12:07;;;;;;;2.15;0.80;;;17.70;52.80;;;;;;5128289;27;20157;-86
2022/01/16 07:14:34;;;;;;;2.05;0.80;;;17.70;52.70;;;;;;5127957;27;20540;-85
2022/01/16 07:17:05;;;;;;;1.27;0.80;;;17.70;52.60;;;;;;5128266;27;20167;-86
2022/01/16 07:19:33;;;;;;;1.35;0.80;;;17.70;52.60;;;;;;5094877;28;20165;-87
2022/01/16 07:22:00;;;;;;;1.25;0.85;;;17.70;52.80;;;;;;5110995;28;20203;-86
2022/01/16 07:24:25;;;;;;;1.65;0.75;;;17.70;52.70;;;;;;5127968;27;20633;-87
2022/01/16 07:26:51;;;;;;;1.23;0.80;;;17.80;52.50;;;;;;5127960;27;20171;-86
2022/01/16 07:29:20;;;;;;;2.03;0.98;;;17.70;52.30;;;;;;5128333;27;20519;-85
2022/01/16 07:31:45;;;;;;;1.13;0.90;;;17.70;52.40;;;;;;5114371;28;20164;-84
2022/01/16 07:34:11;;;;;;;1.58;1.02;;;17.70;52.40;;;;;;5111006;28;20160;-85
2022/01/16 07:36:38;;;;;;;1.27;0.90;;;17.70;52.50;;;;;;5110688;28;20171;-84
2022/01/16 07:39:04;;;;;;;1.13;0.85;;;17.70;52.80;;;;;;5127464;27;20171;-85
2022/01/16 07:41:30;;;;;;;0.82;0.70;;;17.60;52.90;;;;;;5110272;28;20202;-84
2022/01/16 07:43:56;;;;;;;1.75;0.98;;;17.60;52.90;;;;;;5110542;28;20165;-84
2022/01/16 07:46:24;;;;;;;2.15;0.90;;;17.70;52.80;;;;;;5111153;28;20226;-86
2022/01/16 07:48:50;;;;;;;1.20;0.80;;;17.70;53.00;;;;;;5094907;28;20223;-85
2022/01/16 07:51:17;;;;;;;1.55;0.82;;;17.60;52.90;;;;;;5127680;27;20522;-84
2022/01/16 07:53:43;;;;;;;2.25;0.90;;;17.70;52.40;;;;;;5110386;28;20251;-84
2022/01/16 07:56:09;;;;;;;1.42;0.90;;;17.70;52.40;;;;;;5093063;28;20223;-85
2022/01/16 07:58:36;;;;;;;1.92;0.98;;;17.80;52.20;;;;;;5093567;28;20248;-85
2022/01/16 08:01:02;;;;;;;1.90;0.90;;;17.80;52.60;;;;;;5111141;28;20239;-85
2022/01/16 08:03:28;;;;;;;1.52;0.63;;;17.90;52.20;;;;;;5110894;28;20172;-86
2022/01/16 08:05:54;;;;;;;2.33;0.80;;;17.90;52.00;;;;;;5076939;28;20165;-85
2022/01/16 08:08:22;;;;;;;0.82;0.70;;;17.90;51.80;;;;;;5093298;28;20643;-85
2022/01/16 08:10:48;;;;;;;2.20;0.95;;;17.90;51.80;;;;;;5093174;28;20263;-85
2022/01/16 08:13:14;;;;;;;1.70;1.10;;;18.00;51.70;;;;;;5093855;28;20278;-86
2022/01/16 08:15:40;;;;;;;1.85;0.90;;;18.00;51.40;;;;;;5110757;28;20153;-87
2022/01/16 08:18:06;;;;;;;1.85;0.90;;;18.00;51.50;;;;;;5109672;28;20512;-86
2022/01/16 08:20:32;;;;;;;1.67;0.80;;;18.00;51.30;;;;;;5109338;28;20252;-85
2022/01/16 08:22:59;;;;;;;0.98;0.75;;;18.00;51.40;;;;;;5092921;28;20171;-85
2022/01/16 08:25:25;;;;;;;2.35;0.75;;;18.00;51.20;;;;;;5109313;28;20616;-86
2022/01/16 08:27:51;;;;;;;1.00;0.82;;;18.10;51.40;;;;;;5093232;28;20196;-85
2022/01/16 08:30:16;;;;;;;3.25;0.93;;;18.10;51.30;;;;;;5097467;28;20195;-83
2022/01/16 08:32:43;;;;;;;1.67;0.68;;;18.20;51.00;;;;;;5096223;28;20557;-86
2022/01/16 08:35:11;;;;;;;1.48;0.80;;;18.10;51.00;;;;;;5116972;28;20165;-87
2022/01/16 08:37:38;;;;;;;3.95;0.80;;;18.10;51.00;;;;;;5100876;28;20183;-85
2022/01/16 08:40:05;;;;;;;1.50;0.80;;;18.10;50.70;;;;;;5119864;28;20171;-84
2022/01/16 08:42:31;;;;;;;2.03;0.70;;;18.20;50.90;;;;;;5104604;28;20169;-84
2022/01/16 08:44:57;;;;;;;1.58;0.77;;;18.20;50.70;;;;;;5118392;28;20177;-85
2022/01/16 08:47:22;;;;;;;1.52;0.82;;;18.20;50.80;;;;;;5137818;27;20194;-84
2022/01/16 08:49:51;;;;;;;1.35;0.80;;;18.20;50.80;;;;;;5102335;28;20199;-84
2022/01/16 08:52:19;;;;;;;0.95;0.68;;;18.20;50.60;;;;;;5101059;28;20173;-84
2022/01/16 08:54:49;;;;;;;2.67;1.08;;;18.20;51.10;;;;;;5120159;28;20508;-86
2022/01/16 08:57:14;;;;;;;3.00;0.90;;;18.20;51.70;;;;;;5103819;28;20172;-85
2022/01/16 08:59:42;;;;;;;1.73;0.68;;;18.20;51.00;;;;;;5136290;27;20172;-85
2022/01/16 09:02:08;;;;;;;1.65;0.80;;;18.20;51.10;;;;;;5101885;28;20277;-86
2022/01/16 09:04:37;;;;;;;1.35;0.80;;;18.30;51.20;;;;;;5102507;28;20172;-85
2022/01/16 09:07:04;;;;;;;1.80;0.70;;;18.20;51.20;;;;;;5103451;28;20196;-85
2022/01/16 09:09:31;;;;;;;0.98;0.80;;;18.20;51.30;;;;;;5098647;28;20159;-85
2022/01/16 09:12:01;;;;;;;2.40;0.93;;;18.20;51.90;;;;;;5102568;28;20176;-86
2022/01/16 09:14:31;;;;;;;1.13;0.77;;;18.30;51.10;;;;;;5100333;28;20171;-85
2022/01/16 09:16:58;;;;;;;1.10;0.77;;;18.30;50.70;;;;;;5100050;28;20180;-87
2022/01/16 09:19:24;;;;;;;0.88;0.60;;;18.40;50.80;;;;;;5100744;28;20164;-86
2022/01/16 09:21:50;;;;;;;1.02;0.60;;;18.30;50.60;;;;;;5100882;28;20615;-86
2022/01/16 09:24:18;;;;;;;0.75;0.63;;;18.30;50.80;;;;;;5135536;27;20164;-87
2022/01/16 09:26:47;;;;;;;1.50;0.80;;;18.30;50.70;;;;;;5102222;28;20156;-87
2022/01/16 09:29:18;;;;;;;1.20;0.77;;;18.30;51.00;;;;;;5101600;28;20160;-87
2022/01/16 09:31:44;;;;;;;1.10;0.85;;;18.40;50.90;;;;;;5103079;28;20160;-88
2022/01/16 09:34:09;;;;;;;1.30;0.52;;;18.40;50.80;;;;;;5100596;28;20281;-86
2022/01/16 09:36:38;;;;;;;1.80;0.73;;;18.40;50.70;;;;;;5116252;28;20191;-87
2022/01/16 09:39:05;;;;;;;1.60;0.80;;;18.40;50.70;;;;;;5083297;28;20209;-86
2022/01/16 09:41:30;;;;;;;4.00;0.77;;;18.50;50.80;;;;;;5114919;28;20184;-86
2022/01/16 09:43:58;;;;;;;4.35;0.77;;;18.40;50.80;;;;;;5097328;28;20238;-87
2022/01/16 09:53:22;;;;;;;;;;;;;;;;;;;;;
2022/01/16 09:56:39;;;;;;;2.83;0.80;;;18.50;50.80;;;;;;4958057;29;20253;-87
2022/01/16 09:59:05;;;;;;;4.13;1.17;;;18.60;51.00;;;;;;4861676;29;20193;-87
2022/01/16 10:01:31;;;;;;;9.60;1.17;;;18.50;51.10;;;;;;4858254;29;20228;-87
2022/01/16 10:04:03;;;;;;;3.22;1.00;;;18.50;51.20;;;;;;4853483;29;20268;-88
2022/01/16 10:06:33;;;;;;;8.85;0.95;;;18.50;51.10;;;;;;4870901;29;20184;-86
2022/01/16 10:09:04;;;;;;;6.47;0.82;;;18.60;50.90;;;;;;4868936;29;20212;-87
2022/01/16 10:11:36;;;;;;;12.10;1.40;;;18.50;50.90;;;;;;4872708;29;20235;-87
2022/01/16 10:14:21;;;;;;;9.70;1.42;;;18.60;51.10;;;;;;4856667;29;20217;-86
2022/01/16 10:16:47;;;;;;;5.72;0.80;;;18.60;51.20;;;;;;4870356;29;20363;-86
2022/01/16 10:19:25;;;;;;;12.75;1.17;;;18.70;50.70;;;;;;4935347;29;20253;-85
2022/01/16 10:21:51;;;;;;;7.63;0.82;;;18.60;50.70;;;;;;4962636;29;20192;-86
2022/01/16 10:24:27;;;;;;;10.05;1.10;;;18.60;50.90;;;;;;4964491;29;20185;-86
2022/01/16 10:27:14;;;;;;;5.38;1.30;;;18.70;51.00;;;;;;4953769;29;20214;-87
2022/01/16 10:29:45;;;;;;;8.60;1.20;;;18.70;50.80;;;;;;5047192;28;20195;-87
2022/01/16 10:32:14;;;;;;;19.60;1.75;;;18.70;50.90;;;;;;5001447;28;20687;-86
2022/01/16 10:34:40;;;;;;;8.80;1.42;;;18.70;50.90;;;;;;5033255;28;20170;-86
2022/01/16 10:37:21;;;;;;;6.32;1.45;;;18.70;50.80;;;;;;5031710;28;20178;-86
2022/01/16 10:39:57;;;;;;;15.95;1.65;;;18.70;50.90;;;;;;5036814;28;20174;-86
2022/01/16 10:42:24;;;;;;;9.75;1.60;;;18.80;51.00;;;;;;5031122;28;20236;-87
2022/01/16 10:44:55;;;;;;;11.07;1.40;;;18.70;51.00;;;;;;5029480;28;20166;-86
2022/01/16 10:47:40;;;;;;;9.75;1.33;;;18.70;51.10;;;;;;5032967;28;20200;-86
2022/01/16 10:50:12;;;;;;;7.78;1.13;;;18.70;51.10;;;;;;5032374;28;20182;-86
2022/01/16 10:52:56;;;;;;;10.63;1.33;;;18.80;51.30;;;;;;5049280;28;20208;-88
2022/01/16 10:55:40;;;;;;;11.27;1.52;;;18.80;51.20;;;;;;5043838;28;20185;-88
2022/01/16 10:58:11;;;;;;;13.35;1.60;;;18.90;51.20;;;;;;5042255;28;20184;-88
2022/01/16 11:00:38;;;;;;;19.10;1.90;;;18.80;51.10;;;;;;5041483;28;20217;-88
2022/01/16 11:03:14;;;;;;;12.85;1.50;;;18.80;51.50;;;;;;5060594;28;20176;-87
2022/01/16 11:05:43;;;;;;;13.38;1.80;;;18.80;51.30;;;;;;5102925;28;20176;-88
2022/01/16 11:08:12;;;;;;;10.90;1.50;;;18.80;51.20;;;;;;5087511;28;20734;-87
2022/01/16 11:10:47;;;;;;;13.45;1.45;;;18.80;51.40;;;;;;5083874;28;20508;-86
2022/01/16 11:13:16;;;;;;;11.05;1.38;;;18.80;51.40;;;;;;5086483;28;20160;-86
2022/01/16 11:15:51;;;;;;;8.05;1.38;;;18.80;51.40;;;;;;5086979;28;20198;-87
2022/01/16 11:18:24;;;;;;;10.40;1.25;;;18.80;51.30;;;;;;5104055;28;20156;-86
2022/01/16 11:20:56;;;;;;;10.07;1.30;;;18.90;51.30;;;;;;5101236;28;20188;-86
2022/01/16 11:23:31;;;;;;;14.57;1.50;;;18.80;51.50;;;;;;5099832;28;20196;-84
2022/01/16 11:26:02;;;;;;;7.97;1.40;;;18.80;51.50;;;;;;5085259;28;20187;-85
2022/01/16 11:28:30;;;;;;;8.82;1.52;;;18.90;51.30;;;;;;5102021;28;20220;-83
2022/01/16 11:30:58;;;;;;;16.73;1.42;;;18.90;51.50;;;;;;5081608;28;20255;-84
2022/01/16 11:33:25;;;;;;;15.38;1.35;;;18.90;51.40;;;;;;5116840;28;20133;-85
2022/01/16 11:36:09;;;;;;;19.42;2.15;;;18.90;51.50;;;;;;5083508;28;20167;-83
2022/01/16 11:38:40;;;;;;;7.72;1.33;;;18.90;51.50;;;;;;5084692;28;20165;-86
2022/01/16 11:41:15;;;;;;;7.60;1.35;;;18.90;51.40;;;;;;5103358;28;20564;-86
2022/01/16 11:43:45;;;;;;;6.97;1.38;;;18.90;51.40;;;;;;5100227;28;20176;-85
2022/01/16 11:46:13;;;;;;;7.07;1.20;;;18.90;51.50;;;;;;5079408;28;20569;-86
2022/01/16 11:49:05;;;;;;;12.18;1.25;;;18.90;51.40;;;;;;5097058;28;20541;-85
2022/01/16 11:52:02;;;;;;;8.65;1.40;;;18.90;51.50;;;;;;5114108;28;20145;-85
2022/01/16 11:54:32;;;;;;;9.55;1.67;;;18.90;51.70;;;;;;5073102;28;20328;-86
2022/01/16 11:57:18;;;;;;;8.70;1.38;;;19.00;51.80;;;;;;5024069;28;20178;-86
2022/01/16 11:59:44;;;;;;;9.18;1.90;;;18.90;51.90;;;;;;5029284;28;20190;-85
2022/01/16 12:02:17;;;;;;;8.68;1.52;;;18.90;51.80;;;;;;5026258;28;20225;-84
2022/01/16 12:04:49;;;;;;;7.68;1.27;;;18.90;51.60;;;;;;5025588;28;20166;-84
2022/01/16 12:07:35;;;;;;;7.10;1.27;;;18.90;51.60;;;;;;5024303;28;20305;-83
2022/01/16 12:10:03;;;;;;;5.63;1.23;;;18.90;51.70;;;;;;5046697;28;20506;-86
2022/01/16 12:12:34;;;;;;;6.63;1.10;;;18.90;51.60;;;;;;5022769;28;20221;-86
2022/01/16 12:15:19;;;;;;;9.40;1.35;;;19.00;51.40;;;;;;5058121;28;20352;-85
2022/01/16 12:17:47;;;;;;;4.22;1.08;;;18.90;51.70;;;;;;5026196;28;20269;-85
2022/01/16 12:20:24;;;;;;;11.43;1.63;;;18.90;52.00;;;;;;5050863;28;20306;-86
2022/01/16 12:22:52;;;;;;;11.55;1.25;;;18.90;51.90;;;;;;5099887;28;20194;-86
2022/01/16 12:25:28;;;;;;;18.02;1.52;;;18.90;52.10;;;;;;5105212;28;20153;-86
2022/01/16 12:28:13;;;;;;;7.60;1.63;;;19.00;52.40;;;;;;5085242;28;20176;-85
2022/01/16 12:30:52;;;;;;;16.45;1.88;;;19.00;52.30;;;;;;5080172;28;20634;-84
2022/01/16 12:33:30;;;;;;;13.18;1.52;;;19.00;52.00;;;;;;5097628;28;20163;-85
2022/01/16 12:36:00;;;;;;;7.90;1.45;;;19.00;52.30;;;;;;5065025;28;20184;-85
2022/01/16 12:38:29;;;;;;;6.07;1.13;;;18.90;52.00;;;;;;5068087;28;20169;-85
2022/01/16 12:41:16;;;;;;;8.23;1.50;;;19.00;52.20;;;;;;5085592;28;20175;-86
2022/01/16 12:43:51;;;;;;;7.25;1.65;;;19.00;52.00;;;;;;5069405;28;20195;-85
2022/01/16 12:46:23;;;;;;;7.68;1.30;;;18.90;51.80;;;;;;5101158;28;20168;-85
2022/01/16 12:48:51;;;;;;;10.15;1.20;;;19.00;51.70;;;;;;5081730;28;20627;-85
2022/01/16 12:51:19;;;;;;;14.43;0.98;;;19.00;51.70;;;;;;5093504;28;20244;-85
2022/01/16 12:53:48;;;;;;;10.40;1.20;;;19.00;51.80;;;;;;5076113;28;20591;-85
2022/01/16 12:56:26;;;;;;;7.60;1.20;;;19.00;51.50;;;;;;5075640;28;20211;-84
2022/01/16 12:58:55;;;;;;;5.25;1.00;;;19.00;51.60;;;;;;5076149;28;20199;-85
2022/01/16 13:01:21;;;;;;;11.27;1.42;;;19.00;51.90;;;;;;5091919;28;20212;-85
2022/01/16 13:03:46;;;;;;;5.03;1.17;;;19.00;52.00;;;;;;5075763;28;20535;-85
2022/01/16 13:06:34;;;;;;;4.03;1.15;;;19.00;52.20;;;;;;5075465;28;20172;-85
2022/01/16 13:09:03;;;;;;;5.60;1.50;;;19.00;52.40;;;;;;5092650;28;20192;-85
2022/01/16 13:11:33;;;;;;;6.93;1.38;;;19.00;52.20;;;;;;5075139;28;20149;-84
2022/01/16 13:13:59;;;;;;;5.40;0.98;;;19.00;52.30;;;;;;5091569;28;20181;-84
2022/01/16 13:16:28;;;;;;;7.20;1.25;;;19.00;51.70;;;;;;5058064;28;20204;-84
2022/01/16 13:19:04;;;;;;;6.70;1.00;;;19.00;52.00;;;;;;5074739;28;20535;-84
2022/01/16 13:21:47;;;;;;;4.60;1.05;;;19.00;51.90;;;;;;5062162;28;20168;-85
2022/01/16 13:24:24;;;;;;;8.43;1.20;;;19.00;51.80;;;;;;5095568;28;20232;-84
2022/01/16 13:26:50;;;;;;;6.22;0.98;;;19.00;51.90;;;;;;5096518;28;20149;-85
2022/01/16 13:29:19;;;;;;;6.45;1.23;;;19.00;51.90;;;;;;5078621;28;20161;-85
2022/01/16 13:31:45;;;;;;;6.95;1.00;;;19.00;51.70;;;;;;5078863;28;20232;-85
2022/01/16 13:34:12;;;;;;;6.40;1.10;;;19.00;51.70;;;;;;5078623;28;20180;-85
2022/01/16 13:36:38;;;;;;;6.05;1.00;;;19.10;52.20;;;;;;5078206;28;20167;-84
2022/01/16 13:39:04;;;;;;;5.72;0.90;;;19.00;52.10;;;;;;5078074;28;20250;-85
2022/01/16 13:41:30;;;;;;;6.10;1.13;;;19.00;51.70;;;;;;5078753;28;20164;-85